ADDS METAR Data INFO
IDs: Format: Raw Decoded Include TAF

Data at: 0157 UTC 19 Jul 2018

KLXY 190155Z AUTO 15006KT 10SM CLR 33/16 A2988 RMK AO2 T03340160
KLXY 190135Z AUTO 15006KT 10SM CLR 34/16 A2988 RMK AO2 T03430156
KLXY 190115Z AUTO 16007KT 10SM CLR 35/16 A2987 RMK AO2 T03520158
KLXY 190055Z AUTO 14007KT 110V170 10SM CLR 36/16 A2987 RMK AO2 T03620158
KLXY 190035Z AUTO 14013G18KT 110V180 10SM CLR 37/16 A2986 RMK AO2 T03700158
KLXY 190015Z AUTO 15016G19KT 110V180 10SM CLR 38/15 A2986 RMK AO2 T03750150
KLXY 182355Z AUTO 19012G16KT 10SM CLR 38/15 A2986 RMK AO2 T03800153 10398 20363
KLXY 182335Z AUTO 16006G15KT 10SM CLR 38/16 A2986 RMK AO2 T03840157
KLXY 182315Z AUTO 19009G18KT 10SM CLR 39/16 A2986 RMK AO2 T03910161
KLXY 182255Z AUTO 17014G20KT 10SM CLR 39/16 A2986 RMK AO2 T03900160
KLXY 182235Z AUTO 11008G18KT 10SM CLR 39/17 A2987 RMK AO2 T03900167
KLXY 182215Z AUTO 19004G14KT 10SM CLR 39/15 A2987 RMK AO2 T03890147
KLXY 182155Z AUTO 18011G16KT 150V220 10SM CLR 39/14 A2988 RMK AO2 T03940138
KLXY 182135Z AUTO 22005G18KT 10SM CLR 39/15 A2989 RMK AO2 T03930146
KLXY 182115Z AUTO 22005KT 10SM CLR 39/15 A2989 RMK AO2 T03920153
KLXY 182055Z AUTO 20010KT 10SM CLR 39/14 A2991 RMK AO2 T03910140
KLXY 182035Z AUTO 20007G14KT 10SM CLR 39/15 A2991 RMK AO2 T03850153
KLXY 182015Z AUTO 33006KT 10SM CLR 39/16 A2992 RMK AO2 T03860155
KLXY 181955Z AUTO 12008G14KT 070V190 10SM CLR 38/15 A2992 RMK AO2 T03830152
KLXY 181935Z AUTO 17010G16KT 10SM CLR 38/17 A2993 RMK AO2 T03830169
KLXY 181915Z AUTO 16009G19KT 110V180 10SM CLR 37/18 A2994 RMK AO2 T03740181
KLXY 181855Z AUTO 14007G16KT 120V180 10SM CLR 37/18 A2995 RMK AO2 T03710183
KLXY 181835Z AUTO 22003G17KT 10SM CLR 37/18 A2996 RMK AO2 T03720180
KLXY 181815Z AUTO 21006G16KT 10SM CLR 37/19 A2997 RMK AO2 T03680186
KLXY 181755Z AUTO 20009KT 180V240 10SM CLR 37/20 A2997 RMK AO2 T03650198 10365 20242
KLXY 181735Z AUTO 23009G19KT 180V240 10SM CLR 36/20 A2997 RMK AO2 T03560203
KLXY 181715Z AUTO 19014G20KT 10SM CLR 35/22 A2998 RMK AO2 T03480215
KLXY 181655Z AUTO 21013G18KT 10SM CLR 34/22 A2999 RMK AO2 T03410216
KLXY 181635Z AUTO 21011G17KT 10SM CLR 33/22 A2999 RMK AO2 T03320219
KLXY 181615Z AUTO 22011G18KT 10SM CLR 32/22 A2999 RMK AO2 T03240220
KLXY 181555Z AUTO 19010G15KT 10SM CLR 32/23 A2999 RMK AO2 T03180225
KLXY 181535Z AUTO 21012KT 10SM CLR 31/23 A2999 RMK AO2 T03110228
KLXY 181515Z AUTO 21010G22KT 10SM CLR 30/23 A3000 RMK AO2 T03000228
KLXY 181455Z AUTO 20010G24KT 10SM CLR 30/23 A3000 RMK AO2 T02960228
KLXY 181435Z AUTO 21010G17KT 10SM CLR 29/23 A3001 RMK AO2 T02870227
KLXY 181415Z AUTO 21009G19KT 10SM CLR 28/23 A3001 RMK AO2 T02800228
KLXY 181355Z AUTO 22010G19KT 10SM CLR 27/23 A3001 RMK AO2 T02710226
KLXY 181335Z AUTO 20008G17KT 10SM CLR 26/23 A3001 RMK AO2 LTG DSNT NE T02630226
KLXY 181315Z AUTO 20009G18KT 10SM CLR 25/22 A3001 RMK AO2 T02540224
KLXY 181255Z AUTO 21007G16KT 10SM CLR 25/22 A3002 RMK AO2 T02500222
KLXY 181235Z AUTO 21008G16KT 10SM CLR 25/22 A3001 RMK AO2 T02460220
KLXY 181215Z AUTO 19007KT 10SM CLR 24/22 A3001 RMK AO2 T02430218
KLXY 181155Z AUTO 20007KT 10SM CLR 24/22 A3000 RMK AO2 T02420216 10272 20242
KLXY 181135Z AUTO 20007G16KT 10SM CLR 25/22 A2999 RMK AO2 T02450215
KLXY 181115Z AUTO 20007KT 10SM CLR 25/22 A2999 RMK AO2 T02460215
KLXY 181055Z AUTO 21009G17KT 10SM CLR 25/22 A2999 RMK AO2 T02480215
KLXY 181035Z AUTO 21011G17KT 10SM CLR 25/22 A2998 RMK AO2 T02500215
KLXY 181015Z AUTO 21011G20KT 10SM CLR 25/22 A2998 RMK AO2 T02530215
KLXY 180955Z AUTO 21009KT 10SM CLR 26/22 A2998 RMK AO2 T02550215
KLXY 180935Z AUTO 21008G14KT 10SM CLR 26/22 A2998 RMK AO2 T02560215
KLXY 180915Z AUTO 21008KT 10SM CLR 26/22 A2998 RMK AO2 T02580215
KLXY 180855Z AUTO 21009G15KT 10SM CLR 26/22 A2998 RMK AO2 T02610215
KLXY 180835Z AUTO 20008KT 10SM CLR 26/22 A2998 RMK AO2 T02610215
KLXY 180815Z AUTO 20007KT 10SM CLR 26/22 A2998 RMK AO2 T02640215
KLXY 180755Z AUTO 19007KT 10SM CLR 27/21 A2998 RMK AO2 T02650214
KLXY 180735Z AUTO 19007KT 10SM CLR 27/21 A2998 RMK AO2 T02660212
KLXY 180715Z AUTO 19008KT 10SM CLR 27/21 A2998 RMK AO2 T02670211
KLXY 180655Z AUTO 19010KT 10SM CLR 27/21 A2998 RMK AO2 T02700210
KLXY 180635Z AUTO 19009G14KT 10SM CLR 27/21 A2998 RMK AO2 T02720210
KLXY 180615Z AUTO 19011KT 10SM CLR 27/21 A2998 RMK AO2 T02700210
KLXY 180555Z AUTO 19011KT 10SM CLR 27/21 A2998 RMK AO2 T02710210 10376 20271 403910227
KLXY 180535Z AUTO 19011KT 10SM CLR 28/21 A2998 RMK AO2 T02780210
KLXY 180515Z AUTO 19011KT 10SM CLR 28/21 A2998 RMK AO2 T02820208
KLXY 180455Z AUTO 19013KT 10SM CLR 29/21 A2999 RMK AO2 T02860206
KLXY 180435Z AUTO 19013KT 10SM CLR 29/20 A2999 RMK AO2 T02900202
KLXY 180415Z AUTO 18012KT 10SM CLR 29/19 A2999 RMK AO2 T02900191
KLXY 180355Z AUTO 16007G16KT 10SM CLR 30/19 A2998 RMK AO2 T02950186
KLXY 180335Z AUTO 18011G16KT 10SM CLR 30/19 A2997 RMK AO2 T03010185
KLXY 180315Z AUTO 18013G18KT 10SM CLR 31/18 A2997 RMK AO2 T03060184
KLXY 180255Z AUTO 18011G15KT 10SM CLR 31/18 A2996 RMK AO2 T03070183
KLXY 180235Z AUTO 17007KT 10SM CLR 31/18 A2997 RMK AO2 T03080183
KLXY 180215Z AUTO 16005KT 10SM CLR 31/18 A2996 RMK AO2 T03140181
KLXY 180155Z AUTO 16006KT 10SM CLR 32/18 A2996 RMK AO2 T03220175
KLXY 180135Z AUTO 16006KT 10SM CLR 33/14 A2995 RMK AO2 T03270140
KLXY 180115Z AUTO 15007KT 10SM CLR 34/13 A2995 RMK AO2 T03420125
KLXY 180055Z AUTO 17008KT 10SM CLR 36/13 A2995 RMK AO2 T03550128
KLXY 180035Z AUTO 17009G14KT 10SM CLR 36/13 A2994 RMK AO2 T03640129
KLXY 180015Z AUTO 19008G14KT 10SM CLR 37/11 A2994 RMK AO2 T03710111
KLXY 172355Z AUTO 20008G14KT 10SM CLR 38/11 A2994 RMK AO2 T03760111 10391 20354
KLXY 172335Z AUTO 19009KT 10SM CLR 38/11 A2994 RMK AO2 T03800109
KLXY 172315Z AUTO 17013G18KT 10SM CLR 38/12 A2994 RMK AO2 T03820115
KLXY 172255Z AUTO 17012G16KT 100V190 10SM CLR 38/12 A2995 RMK AO2 T03820116
KLXY 172235Z AUTO 19009G19KT 10SM CLR 39/12 A2996 RMK AO2 T03860118
KLXY 172215Z AUTO 18014G17KT 10SM CLR 39/12 A2996 RMK AO2 T03850123
KLXY 172155Z AUTO 20009G15KT 160V220 10SM CLR 38/13 A2996 RMK AO2 T03830128
KLXY 172135Z AUTO 20008G12KT 10SM CLR 39/13 A2997 RMK AO2 T03870125
KLXY 172115Z AUTO 18011G18KT 10SM CLR 39/13 A2997 RMK AO2 T03880134
KLXY 172055Z AUTO 17014G18KT 130V190 10SM CLR 38/13 A2998 RMK AO2 T03840132
KLXY 172035Z AUTO 21007G16KT 10SM CLR 38/14 A2999 RMK AO2 T03820139
KLXY 172015Z AUTO 22009G14KT 10SM CLR 38/15 A3000 RMK AO2 T03840146
KLXY 171955Z AUTO 21007G15KT 10SM CLR 38/13 A3001 RMK AO2 T03790132
KLXY 171935Z AUTO 23007G20KT 10SM CLR 37/13 A3002 RMK AO2 T03740130
KLXY 171915Z AUTO 21008G21KT 10SM CLR 38/14 A3003 RMK AO2 T03750140
KLXY 171855Z AUTO 24006G22KT 10SM CLR 37/15 A3004 RMK AO2 T03680150
KLXY 171835Z AUTO 19012G20KT 10SM CLR 36/15 A3004 RMK AO2 T03640149
KLXY 171815Z AUTO 20008G20KT 10SM CLR 36/16 A3006 RMK AO2 LTG DSNT N T03640158
KLXY 171755Z AUTO 23007G20KT 10SM CLR 35/16 A3006 RMK AO2 T03500158 10352 20227
KLXY 171735Z AUTO 23008G18KT 10SM CLR 35/16 A3007 RMK AO2 T03500156
KLXY 171715Z AUTO 22010G17KT 10SM CLR 34/16 A3007 RMK AO2 T03420164
KLXY 171655Z AUTO 21013G16KT 10SM CLR 34/17 A3007 RMK AO2 T03360174
KLXY 171635Z AUTO 18010G15KT 160V220 10SM CLR 33/18 A3007 RMK AO2 T03300181
KLXY 171615Z AUTO 21013KT 10SM CLR 32/19 A3007 RMK AO2 T03190185
KLXY 171555Z AUTO 20010G21KT 10SM CLR 31/20 A3007 RMK AO2 T03140199
KLXY 171535Z AUTO 20010G17KT 10SM CLR 31/20 A3007 RMK AO2 T03060203
KLXY 171515Z AUTO 21010G20KT 10SM CLR 29/21 A3008 RMK AO2 T02910205
KLXY 171455Z AUTO 21010G21KT 10SM CLR 28/21 A3008 RMK AO2 T02840209
KLXY 171435Z AUTO 22009G19KT 10SM CLR 28/21 A3008 RMK AO2 T02790212
KLXY 171415Z AUTO 22010G20KT 10SM CLR 27/21 A3008 RMK AO2 T02670212